Weather at Bradford Regional Airport

Public forecast

Using degrees Fahrenheit for public forecast. Weather courtesy of forecast.io.

Current aviation weather report (METAR) for Bradford Regional Airport

Retrieved 2020/12/04 09:39 UTC (0 seconds ago):

KBFD 040939Z AUTO VRB06KT 2 1/2SM -SN BKN014 OVC019 00/M04 A2993 RMK AO2 P0000 T00001039

Aviation forecast (TAF) for Bradford Regional Airport

Retrieved 2020/12/04 06:42 UTC (3 hours ago):

TAF KBFD 040540Z 0406/0506 22006KT P6SM OVC050 FM041600 22008G16KT P6SM VCSH OVC025 FM042100 23007KT 4SM -RA BR OVC015